sensor_id;sensor_type;location;lat;lon;timestamp;P1;durP1;ratioP1;P2;durP2;ratioP2
18322;SDS011;9287;49.456;11.064;2024-02-21T00:02:08;14.33;;;3.40;;
18322;SDS011;9287;49.456;11.064;2024-02-21T00:04:37;9.07;;;3.23;;
18322;SDS011;9287;49.456;11.064;2024-02-21T00:07:05;8.70;;;3.50;;
18322;SDS011;9287;49.456;11.064;2024-02-21T00:09:33;9.27;;;3.57;;
18322;SDS011;9287;49.456;11.064;2024-02-21T00:12:00;13.13;;;2.97;;
18322;SDS011;9287;49.456;11.064;2024-02-21T00:14:29;11.27;;;2.90;;
18322;SDS011;9287;49.456;11.064;2024-02-21T00:16:57;9.63;;;3.07;;
18322;SDS011;9287;49.456;11.064;2024-02-21T00:19:25;9.83;;;3.13;;
18322;SDS011;9287;49.456;11.064;2024-02-21T00:21:54;11.07;;;3.10;;
18322;SDS011;9287;49.456;11.064;2024-02-21T00:24:22;7.87;;;3.53;;
18322;SDS011;9287;49.456;11.064;2024-02-21T00:26:50;11.20;;;3.20;;
18322;SDS011;9287;49.456;11.064;2024-02-21T00:29:17;11.20;;;3.50;;
18322;SDS011;9287;49.456;11.064;2024-02-21T00:31:45;13.03;;;3.67;;
18322;SDS011;9287;49.456;11.064;2024-02-21T00:34:13;10.80;;;3.10;;
18322;SDS011;9287;49.456;11.064;2024-02-21T00:36:41;7.13;;;3.00;;
18322;SDS011;9287;49.456;11.064;2024-02-21T00:39:10;9.80;;;3.73;;
18322;SDS011;9287;49.456;11.064;2024-02-21T00:41:38;9.43;;;3.60;;
18322;SDS011;9287;49.456;11.064;2024-02-21T00:44:06;8.43;;;3.40;;
18322;SDS011;9287;49.456;11.064;2024-02-21T00:46:33;10.80;;;3.60;;
18322;SDS011;9287;49.456;11.064;2024-02-21T00:49:01;13.43;;;4.10;;
18322;SDS011;9287;49.456;11.064;2024-02-21T00:51:29;12.03;;;3.53;;
18322;SDS011;9287;49.456;11.064;2024-02-21T00:53:57;11.47;;;3.10;;
18322;SDS011;9287;49.456;11.064;2024-02-21T00:56:26;10.13;;;3.30;;
18322;SDS011;9287;49.456;11.064;2024-02-21T00:58:54;10.30;;;3.17;;
18322;SDS011;9287;49.456;11.064;2024-02-21T01:01:23;13.70;;;3.60;;
18322;SDS011;9287;49.456;11.064;2024-02-21T01:03:52;7.63;;;2.70;;
18322;SDS011;9287;49.456;11.064;2024-02-21T01:06:20;8.40;;;3.20;;
18322;SDS011;9287;49.456;11.064;2024-02-21T01:08:48;9.67;;;3.63;;
18322;SDS011;9287;49.456;11.064;2024-02-21T01:11:16;11.20;;;3.30;;
18322;SDS011;9287;49.456;11.064;2024-02-21T01:13:46;9.27;;;3.00;;
18322;SDS011;9287;49.456;11.064;2024-02-21T01:16:14;8.50;;;2.73;;
18322;SDS011;9287;49.456;11.064;2024-02-21T01:18:41;11.57;;;3.60;;
18322;SDS011;9287;49.456;11.064;2024-02-21T01:21:09;6.60;;;2.87;;
18322;SDS011;9287;49.456;11.064;2024-02-21T01:23:37;10.97;;;3.20;;
18322;SDS011;9287;49.456;11.064;2024-02-21T01:26:05;9.60;;;2.80;;
18322;SDS011;9287;49.456;11.064;2024-02-21T01:28:34;10.60;;;3.10;;
18322;SDS011;9287;49.456;11.064;2024-02-21T01:31:05;6.50;;;2.57;;
18322;SDS011;9287;49.456;11.064;2024-02-21T01:33:32;9.53;;;3.37;;
18322;SDS011;9287;49.456;11.064;2024-02-21T01:36:01;9.60;;;2.93;;
18322;SDS011;9287;49.456;11.064;2024-02-21T01:38:29;11.90;;;4.03;;
18322;SDS011;9287;49.456;11.064;2024-02-21T01:40:58;7.00;;;2.73;;
18322;SDS011;9287;49.456;11.064;2024-02-21T01:43:26;7.83;;;3.13;;
18322;SDS011;9287;49.456;11.064;2024-02-21T01:45:54;10.40;;;2.93;;
18322;SDS011;9287;49.456;11.064;2024-02-21T01:48:30;13.90;;;2.93;;
18322;SDS011;9287;49.456;11.064;2024-02-21T01:50:58;12.07;;;2.93;;
18322;SDS011;9287;49.456;11.064;2024-02-21T01:53:27;8.37;;;3.00;;
18322;SDS011;9287;49.456;11.064;2024-02-21T01:55:57;6.77;;;2.83;;
18322;SDS011;9287;49.456;11.064;2024-02-21T01:58:25;12.27;;;3.53;;
18322;SDS011;9287;49.456;11.064;2024-02-21T02:00:55;6.10;;;2.80;;
18322;SDS011;9287;49.456;11.064;2024-02-21T02:03:24;12.33;;;3.20;;
18322;SDS011;9287;49.456;11.064;2024-02-21T02:05:54;10.30;;;2.60;;
18322;SDS011;9287;49.456;11.064;2024-02-21T02:08:22;8.77;;;2.77;;
18322;SDS011;9287;49.456;11.064;2024-02-21T02:10:50;7.43;;;2.80;;
18322;SDS011;9287;49.456;11.064;2024-02-21T02:13:18;8.77;;;2.70;;
18322;SDS011;9287;49.456;11.064;2024-02-21T02:15:46;7.17;;;2.80;;
18322;SDS011;9287;49.456;11.064;2024-02-21T02:18:16;8.73;;;2.73;;
18322;SDS011;9287;49.456;11.064;2024-02-21T02:20:45;11.50;;;3.07;;
18322;SDS011;9287;49.456;11.064;2024-02-21T02:23:18;7.87;;;2.60;;
18322;SDS011;9287;49.456;11.064;2024-02-21T02:25:48;12.30;;;2.50;;
18322;SDS011;9287;49.456;11.064;2024-02-21T02:28:18;11.97;;;2.90;;
18322;SDS011;9287;49.456;11.064;2024-02-21T02:30:46;7.67;;;3.33;;
18322;SDS011;9287;49.456;11.064;2024-02-21T02:33:15;7.73;;;3.30;;
18322;SDS011;9287;49.456;11.064;2024-02-21T02:35:44;7.80;;;2.90;;
18322;SDS011;9287;49.456;11.064;2024-02-21T02:38:12;7.77;;;3.20;;
18322;SDS011;9287;49.456;11.064;2024-02-21T02:40:42;7.20;;;3.47;;
18322;SDS011;9287;49.456;11.064;2024-02-21T02:43:11;7.63;;;3.33;;
18322;SDS011;9287;49.456;11.064;2024-02-21T02:45:39;7.80;;;3.47;;
18322;SDS011;9287;49.456;11.064;2024-02-21T02:48:07;9.67;;;3.50;;
18322;SDS011;9287;49.456;11.064;2024-02-21T02:50:35;10.27;;;3.20;;
18322;SDS011;9287;49.456;11.064;2024-02-21T02:53:03;10.47;;;2.70;;
18322;SDS011;9287;49.456;11.064;2024-02-21T02:55:31;12.33;;;3.33;;
18322;SDS011;9287;49.456;11.064;2024-02-21T02:58:00;9.87;;;2.70;;
18322;SDS011;9287;49.456;11.064;2024-02-21T03:00:28;12.17;;;2.93;;
18322;SDS011;9287;49.456;11.064;2024-02-21T03:02:57;6.90;;;2.80;;
18322;SDS011;9287;49.456;11.064;2024-02-21T03:05:24;9.63;;;2.97;;
18322;SDS011;9287;49.456;11.064;2024-02-21T03:07:52;5.90;;;2.57;;
18322;SDS011;9287;49.456;11.064;2024-02-21T03:10:20;11.77;;;3.30;;
18322;SDS011;9287;49.456;11.064;2024-02-21T03:12:48;10.13;;;2.83;;
18322;SDS011;9287;49.456;11.064;2024-02-21T03:15:20;9.60;;;3.30;;
18322;SDS011;9287;49.456;11.064;2024-02-21T03:17:48;7.87;;;2.47;;
18322;SDS011;9287;49.456;11.064;2024-02-21T03:20:16;12.70;;;3.57;;
18322;SDS011;9287;49.456;11.064;2024-02-21T03:22:46;7.37;;;2.67;;
18322;SDS011;9287;49.456;11.064;2024-02-21T03:25:13;12.73;;;3.10;;
18322;SDS011;9287;49.456;11.064;2024-02-21T03:27:41;14.77;;;3.03;;
18322;SDS011;9287;49.456;11.064;2024-02-21T03:30:09;10.87;;;2.80;;
18322;SDS011;9287;49.456;11.064;2024-02-21T03:32:40;6.77;;;2.30;;
18322;SDS011;9287;49.456;11.064;2024-02-21T03:35:08;9.60;;;2.73;;
18322;SDS011;9287;49.456;11.064;2024-02-21T03:37:36;8.13;;;2.60;;
18322;SDS011;9287;49.456;11.064;2024-02-21T03:40:06;11.70;;;3.20;;
18322;SDS011;9287;49.456;11.064;2024-02-21T03:42:35;8.07;;;2.50;;
18322;SDS011;9287;49.456;11.064;2024-02-21T03:45:03;10.27;;;2.60;;
18322;SDS011;9287;49.456;11.064;2024-02-21T03:47:31;13.77;;;3.13;;
18322;SDS011;9287;49.456;11.064;2024-02-21T03:50:00;9.40;;;3.07;;
18322;SDS011;9287;49.456;11.064;2024-02-21T03:52:28;4.47;;;2.50;;
18322;SDS011;9287;49.456;11.064;2024-02-21T03:54:56;6.90;;;2.60;;
18322;SDS011;9287;49.456;11.064;2024-02-21T03:57:24;8.97;;;2.93;;
18322;SDS011;9287;49.456;11.064;2024-02-21T03:59:51;8.10;;;2.50;;
18322;SDS011;9287;49.456;11.064;2024-02-21T04:02:19;8.40;;;2.30;;
18322;SDS011;9287;49.456;11.064;2024-02-21T04:04:47;7.40;;;2.40;;
18322;SDS011;9287;49.456;11.064;2024-02-21T04:07:16;5.67;;;2.00;;
18322;SDS011;9287;49.456;11.064;2024-02-21T04:09:44;8.80;;;2.90;;
18322;SDS011;9287;49.456;11.064;2024-02-21T04:12:12;9.40;;;2.53;;
18322;SDS011;9287;49.456;11.064;2024-02-21T04:14:39;7.97;;;2.47;;
18322;SDS011;9287;49.456;11.064;2024-02-21T04:17:11;13.67;;;3.13;;
18322;SDS011;9287;49.456;11.064;2024-02-21T04:19:39;10.53;;;2.30;;
18322;SDS011;9287;49.456;11.064;2024-02-21T04:22:07;6.73;;;2.57;;
18322;SDS011;9287;49.456;11.064;2024-02-21T04:24:36;10.87;;;2.37;;
18322;SDS011;9287;49.456;11.064;2024-02-21T04:27:04;8.40;;;2.70;;
18322;SDS011;9287;49.456;11.064;2024-02-21T04:29:31;9.60;;;2.73;;
18322;SDS011;9287;49.456;11.064;2024-02-21T04:31:59;9.40;;;3.37;;
18322;SDS011;9287;49.456;11.064;2024-02-21T04:34:29;8.10;;;2.27;;
18322;SDS011;9287;49.456;11.064;2024-02-21T04:36:57;9.47;;;2.40;;
18322;SDS011;9287;49.456;11.064;2024-02-21T04:39:25;8.17;;;2.50;;
18322;SDS011;9287;49.456;11.064;2024-02-21T04:41:54;11.37;;;3.00;;
18322;SDS011;9287;49.456;11.064;2024-02-21T04:44:22;13.73;;;3.00;;
18322;SDS011;9287;49.456;11.064;2024-02-21T04:46:50;7.77;;;2.53;;
18322;SDS011;9287;49.456;11.064;2024-02-21T04:49:17;7.93;;;3.03;;
18322;SDS011;9287;49.456;11.064;2024-02-21T04:51:45;6.73;;;2.40;;
18322;SDS011;9287;49.456;11.064;2024-02-21T04:54:13;8.23;;;2.23;;
18322;SDS011;9287;49.456;11.064;2024-02-21T04:56:41;10.97;;;2.77;;
18322;SDS011;9287;49.456;11.064;2024-02-21T04:59:10;9.40;;;2.10;;
18322;SDS011;9287;49.456;11.064;2024-02-21T05:01:38;10.13;;;2.60;;
18322;SDS011;9287;49.456;11.064;2024-02-21T05:04:06;8.50;;;2.80;;
18322;SDS011;9287;49.456;11.064;2024-02-21T05:06:36;7.27;;;2.43;;
18322;SDS011;9287;49.456;11.064;2024-02-21T05:09:04;6.97;;;2.70;;
18322;SDS011;9287;49.456;11.064;2024-02-21T05:11:32;7.77;;;2.53;;
18322;SDS011;9287;49.456;11.064;2024-02-21T05:14:00;8.83;;;2.50;;
18322;SDS011;9287;49.456;11.064;2024-02-21T05:16:30;9.30;;;2.87;;
18322;SDS011;9287;49.456;11.064;2024-02-21T05:18:59;6.00;;;2.53;;
18322;SDS011;9287;49.456;11.064;2024-02-21T05:21:26;12.23;;;3.10;;
18322;SDS011;9287;49.456;11.064;2024-02-21T05:23:55;6.73;;;2.73;;
18322;SDS011;9287;49.456;11.064;2024-02-21T05:26:23;5.20;;;3.00;;
18322;SDS011;9287;49.456;11.064;2024-02-21T05:28:52;7.63;;;2.70;;
18322;SDS011;9287;49.456;11.064;2024-02-21T05:31:20;6.97;;;2.33;;
18322;SDS011;9287;49.456;11.064;2024-02-21T05:33:49;9.40;;;2.87;;
18322;SDS011;9287;49.456;11.064;2024-02-21T05:36:17;14.03;;;3.30;;
18322;SDS011;9287;49.456;11.064;2024-02-21T05:38:45;8.40;;;3.53;;
18322;SDS011;9287;49.456;11.064;2024-02-21T05:41:13;7.87;;;2.97;;
18322;SDS011;9287;49.456;11.064;2024-02-21T05:43:41;8.20;;;2.93;;
18322;SDS011;9287;49.456;11.064;2024-02-21T05:46:08;6.00;;;3.00;;
18322;SDS011;9287;49.456;11.064;2024-02-21T05:48:36;9.53;;;2.90;;
18322;SDS011;9287;49.456;11.064;2024-02-21T05:51:07;6.93;;;2.50;;
18322;SDS011;9287;49.456;11.064;2024-02-21T05:53:34;6.87;;;2.50;;
18322;SDS011;9287;49.456;11.064;2024-02-21T05:56:09;7.37;;;2.73;;
18322;SDS011;9287;49.456;11.064;2024-02-21T05:58:37;9.43;;;3.17;;
18322;SDS011;9287;49.456;11.064;2024-02-21T06:01:05;14.43;;;3.27;;
18322;SDS011;9287;49.456;11.064;2024-02-21T06:03:34;7.13;;;2.83;;
18322;SDS011;9287;49.456;11.064;2024-02-21T06:06:02;9.73;;;3.03;;
18322;SDS011;9287;49.456;11.064;2024-02-21T06:08:32;6.30;;;3.27;;
18322;SDS011;9287;49.456;11.064;2024-02-21T06:11:00;8.27;;;3.73;;
18322;SDS011;9287;49.456;11.064;2024-02-21T06:13:28;7.63;;;2.73;;
18322;SDS011;9287;49.456;11.064;2024-02-21T06:15:56;11.70;;;4.00;;
18322;SDS011;9287;49.456;11.064;2024-02-21T06:18:33;8.30;;;2.90;;
18322;SDS011;9287;49.456;11.064;2024-02-21T06:21:02;9.67;;;3.00;;
18322;SDS011;9287;49.456;11.064;2024-02-21T06:23:30;6.13;;;2.73;;
18322;SDS011;9287;49.456;11.064;2024-02-21T06:26:00;8.20;;;2.70;;
18322;SDS011;9287;49.456;11.064;2024-02-21T06:28:28;5.83;;;2.77;;
18322;SDS011;9287;49.456;11.064;2024-02-21T06:30:56;8.20;;;3.47;;
18322;SDS011;9287;49.456;11.064;2024-02-21T06:33:23;11.23;;;3.97;;
18322;SDS011;9287;49.456;11.064;2024-02-21T06:35:51;9.00;;;3.10;;
18322;SDS011;9287;49.456;11.064;2024-02-21T06:38:20;9.90;;;3.43;;
18322;SDS011;9287;49.456;11.064;2024-02-21T06:40:48;9.70;;;3.53;;
18322;SDS011;9287;49.456;11.064;2024-02-21T06:43:20;10.37;;;3.27;;
18322;SDS011;9287;49.456;11.064;2024-02-21T06:45:48;7.33;;;3.13;;
18322;SDS011;9287;49.456;11.064;2024-02-21T06:48:17;9.30;;;2.90;;
18322;SDS011;9287;49.456;11.064;2024-02-21T06:50:46;7.07;;;2.97;;
18322;SDS011;9287;49.456;11.064;2024-02-21T06:53:14;7.77;;;2.80;;
18322;SDS011;9287;49.456;11.064;2024-02-21T06:55:42;6.07;;;3.07;;
18322;SDS011;9287;49.456;11.064;2024-02-21T06:58:09;11.40;;;3.43;;
18322;SDS011;9287;49.456;11.064;2024-02-21T07:00:40;6.57;;;3.17;;
18322;SDS011;9287;49.456;11.064;2024-02-21T07:03:09;8.87;;;2.77;;
18322;SDS011;9287;49.456;11.064;2024-02-21T07:05:37;8.10;;;2.83;;
18322;SDS011;9287;49.456;11.064;2024-02-21T07:08:05;8.03;;;3.00;;
18322;SDS011;9287;49.456;11.064;2024-02-21T07:10:36;8.23;;;3.00;;
18322;SDS011;9287;49.456;11.064;2024-02-21T07:13:03;7.87;;;3.40;;
18322;SDS011;9287;49.456;11.064;2024-02-21T07:15:31;8.20;;;2.73;;
18322;SDS011;9287;49.456;11.064;2024-02-21T07:18:00;9.47;;;3.30;;
18322;SDS011;9287;49.456;11.064;2024-02-21T07:20:28;9.10;;;3.60;;
18322;SDS011;9287;49.456;11.064;2024-02-21T07:22:56;9.87;;;3.47;;
18322;SDS011;9287;49.456;11.064;2024-02-21T07:25:24;8.40;;;3.53;;
18322;SDS011;9287;49.456;11.064;2024-02-21T07:27:52;12.23;;;3.67;;
18322;SDS011;9287;49.456;11.064;2024-02-21T07:30:19;9.30;;;3.10;;
18322;SDS011;9287;49.456;11.064;2024-02-21T07:32:48;6.83;;;3.13;;
18322;SDS011;9287;49.456;11.064;2024-02-21T07:35:18;5.57;;;3.30;;
18322;SDS011;9287;49.456;11.064;2024-02-21T07:37:46;11.00;;;3.90;;
18322;SDS011;9287;49.456;11.064;2024-02-21T07:40:14;9.17;;;3.63;;
18322;SDS011;9287;49.456;11.064;2024-02-21T07:42:43;9.47;;;2.80;;
18322;SDS011;9287;49.456;11.064;2024-02-21T07:45:17;6.63;;;2.43;;
18322;SDS011;9287;49.456;11.064;2024-02-21T07:47:48;9.03;;;3.17;;
18322;SDS011;9287;49.456;11.064;2024-02-21T07:50:16;7.83;;;2.90;;
18322;SDS011;9287;49.456;11.064;2024-02-21T07:52:45;8.60;;;3.00;;
18322;SDS011;9287;49.456;11.064;2024-02-21T07:55:13;9.03;;;2.57;;
18322;SDS011;9287;49.456;11.064;2024-02-21T07:57:41;7.97;;;2.30;;
18322;SDS011;9287;49.456;11.064;2024-02-21T08:00:09;6.00;;;2.00;;
18322;SDS011;9287;49.456;11.064;2024-02-21T08:02:43;4.47;;;2.00;;
18322;SDS011;9287;49.456;11.064;2024-02-21T08:05:11;6.97;;;2.57;;
18322;SDS011;9287;49.456;11.064;2024-02-21T08:07:39;7.90;;;2.50;;
18322;SDS011;9287;49.456;11.064;2024-02-21T08:10:09;6.40;;;2.17;;
18322;SDS011;9287;49.456;11.064;2024-02-21T08:12:36;7.70;;;2.13;;
18322;SDS011;9287;49.456;11.064;2024-02-21T08:15:04;5.30;;;2.17;;
18322;SDS011;9287;49.456;11.064;2024-02-21T08:17:34;6.30;;;1.83;;
18322;SDS011;9287;49.456;11.064;2024-02-21T08:20:02;6.87;;;2.00;;
18322;SDS011;9287;49.456;11.064;2024-02-21T08:22:30;4.00;;;1.73;;
18322;SDS011;9287;49.456;11.064;2024-02-21T08:24:58;5.00;;;2.07;;
18322;SDS011;9287;49.456;11.064;2024-02-21T08:27:28;6.27;;;2.10;;
18322;SDS011;9287;49.456;11.064;2024-02-21T08:29:56;7.43;;;2.30;;
18322;SDS011;9287;49.456;11.064;2024-02-21T08:32:23;6.90;;;1.90;;
18322;SDS011;9287;49.456;11.064;2024-02-21T08:34:51;3.97;;;1.60;;
18322;SDS011;9287;49.456;11.064;2024-02-21T08:37:19;7.20;;;2.00;;
18322;SDS011;9287;49.456;11.064;2024-02-21T08:39:47;5.83;;;2.10;;
18322;SDS011;9287;49.456;11.064;2024-02-21T08:42:15;9.50;;;2.20;;
18322;SDS011;9287;49.456;11.064;2024-02-21T08:44:45;6.60;;;1.60;;
18322;SDS011;9287;49.456;11.064;2024-02-21T08:47:12;4.50;;;1.57;;
18322;SDS011;9287;49.456;11.064;2024-02-21T08:49:40;7.83;;;1.57;;
18322;SDS011;9287;49.456;11.064;2024-02-21T08:52:09;7.03;;;1.50;;
18322;SDS011;9287;49.456;11.064;2024-02-21T08:54:36;6.57;;;1.77;;
18322;SDS011;9287;49.456;11.064;2024-02-21T08:57:04;6.40;;;1.80;;
18322;SDS011;9287;49.456;11.064;2024-02-21T08:59:32;4.10;;;1.30;;
18322;SDS011;9287;49.456;11.064;2024-02-21T09:02:02;3.97;;;1.13;;
18322;SDS011;9287;49.456;11.064;2024-02-21T09:04:30;5.00;;;1.43;;
18322;SDS011;9287;49.456;11.064;2024-02-21T09:06:58;5.60;;;1.80;;
18322;SDS011;9287;49.456;11.064;2024-02-21T09:09:26;4.50;;;1.67;;
18322;SDS011;9287;49.456;11.064;2024-02-21T09:11:55;4.07;;;1.57;;
18322;SDS011;9287;49.456;11.064;2024-02-21T09:14:24;3.90;;;1.47;;
18322;SDS011;9287;49.456;11.064;2024-02-21T09:16:51;8.13;;;1.67;;
18322;SDS011;9287;49.456;11.064;2024-02-21T09:19:20;4.70;;;1.43;;
18322;SDS011;9287;49.456;11.064;2024-02-21T09:21:49;4.73;;;1.40;;
18322;SDS011;9287;49.456;11.064;2024-02-21T09:24:17;2.60;;;1.30;;
18322;SDS011;9287;49.456;11.064;2024-02-21T09:26:45;4.87;;;1.40;;
18322;SDS011;9287;49.456;11.064;2024-02-21T09:29:13;10.90;;;1.73;;
18322;SDS011;9287;49.456;11.064;2024-02-21T09:31:42;6.03;;;1.40;;
18322;SDS011;9287;49.456;11.064;2024-02-21T09:34:10;3.40;;;1.40;;
18322;SDS011;9287;49.456;11.064;2024-02-21T09:36:39;8.20;;;1.60;;
18322;SDS011;9287;49.456;11.064;2024-02-21T09:39:07;5.67;;;1.37;;
18322;SDS011;9287;49.456;11.064;2024-02-21T09:41:37;4.50;;;1.40;;
18322;SDS011;9287;49.456;11.064;2024-02-21T09:44:12;5.67;;;1.17;;
18322;SDS011;9287;49.456;11.064;2024-02-21T09:46:43;4.63;;;1.40;;
18322;SDS011;9287;49.456;11.064;2024-02-21T09:49:21;5.77;;;1.30;;
18322;SDS011;9287;49.456;11.064;2024-02-21T09:51:59;5.53;;;1.50;;
18322;SDS011;9287;49.456;11.064;2024-02-21T09:54:29;4.83;;;1.50;;
18322;SDS011;9287;49.456;11.064;2024-02-21T09:56:57;6.03;;;1.30;;
18322;SDS011;9287;49.456;11.064;2024-02-21T09:59:26;6.83;;;1.50;;
18322;SDS011;9287;49.456;11.064;2024-02-21T10:01:55;6.20;;;1.50;;
18322;SDS011;9287;49.456;11.064;2024-02-21T10:04:23;3.83;;;1.10;;
18322;SDS011;9287;49.456;11.064;2024-02-21T10:06:51;5.40;;;1.40;;
18322;SDS011;9287;49.456;11.064;2024-02-21T10:09:23;3.30;;;1.17;;
18322;SDS011;9287;49.456;11.064;2024-02-21T10:11:54;3.43;;;1.67;;
18322;SDS011;9287;49.456;11.064;2024-02-21T10:14:22;3.90;;;1.10;;
18322;SDS011;9287;49.456;11.064;2024-02-21T10:16:56;5.07;;;1.40;;
18322;SDS011;9287;49.456;11.064;2024-02-21T10:19:25;2.77;;;1.33;;
18322;SDS011;9287;49.456;11.064;2024-02-21T10:22:00;5.03;;;1.30;;
18322;SDS011;9287;49.456;11.064;2024-02-21T10:24:31;7.33;;;1.97;;
18322;SDS011;9287;49.456;11.064;2024-02-21T10:27:01;6.13;;;1.60;;
18322;SDS011;9287;49.456;11.064;2024-02-21T10:29:30;4.57;;;1.30;;
18322;SDS011;9287;49.456;11.064;2024-02-21T10:32:05;3.57;;;1.30;;
18322;SDS011;9287;49.456;11.064;2024-02-21T10:34:34;7.97;;;1.40;;
18322;SDS011;9287;49.456;11.064;2024-02-21T10:37:02;5.47;;;1.30;;
18322;SDS011;9287;49.456;11.064;2024-02-21T10:39:33;5.37;;;1.40;;
18322;SDS011;9287;49.456;11.064;2024-02-21T10:42:02;3.60;;;1.20;;
18322;SDS011;9287;49.456;11.064;2024-02-21T10:44:31;4.33;;;1.30;;
18322;SDS011;9287;49.456;11.064;2024-02-21T10:47:00;6.27;;;1.10;;
18322;SDS011;9287;49.456;11.064;2024-02-21T10:49:36;4.97;;;1.10;;
18322;SDS011;9287;49.456;11.064;2024-02-21T10:52:08;3.63;;;1.00;;
18322;SDS011;9287;49.456;11.064;2024-02-21T10:54:45;8.60;;;1.50;;
18322;SDS011;9287;49.456;11.064;2024-02-21T10:57:17;2.97;;;0.93;;
18322;SDS011;9287;49.456;11.064;2024-02-21T10:59:46;5.10;;;1.20;;
18322;SDS011;9287;49.456;11.064;2024-02-21T11:02:15;4.37;;;1.10;;
18322;SDS011;9287;49.456;11.064;2024-02-21T11:04:44;4.57;;;1.10;;
18322;SDS011;9287;49.456;11.064;2024-02-21T11:07:14;1.13;;;0.80;;
18322;SDS011;9287;49.456;11.064;2024-02-21T11:09:50;5.83;;;1.30;;
18322;SDS011;9287;49.456;11.064;2024-02-21T11:12:19;5.57;;;1.50;;
18322;SDS011;9287;49.456;11.064;2024-02-21T11:14:48;5.10;;;1.10;;
18322;SDS011;9287;49.456;11.064;2024-02-21T11:17:16;3.57;;;1.27;;
18322;SDS011;9287;49.456;11.064;2024-02-21T11:19:45;6.40;;;1.30;;
18322;SDS011;9287;49.456;11.064;2024-02-21T11:22:14;4.27;;;1.20;;
18322;SDS011;9287;49.456;11.064;2024-02-21T11:24:45;5.10;;;1.50;;
18322;SDS011;9287;49.456;11.064;2024-02-21T11:27:13;4.10;;;0.97;;
18322;SDS011;9287;49.456;11.064;2024-02-21T11:29:42;4.10;;;1.33;;
18322;SDS011;9287;49.456;11.064;2024-02-21T11:32:10;3.73;;;1.00;;
18322;SDS011;9287;49.456;11.064;2024-02-21T11:34:38;3.10;;;0.93;;
18322;SDS011;9287;49.456;11.064;2024-02-21T11:37:16;2.20;;;0.90;;
18322;SDS011;9287;49.456;11.064;2024-02-21T11:39:45;4.07;;;0.97;;
18322;SDS011;9287;49.456;11.064;2024-02-21T11:42:16;4.20;;;1.07;;
18322;SDS011;9287;49.456;11.064;2024-02-21T11:44:44;4.13;;;1.33;;
18322;SDS011;9287;49.456;11.064;2024-02-21T11:47:13;4.47;;;1.20;;
18322;SDS011;9287;49.456;11.064;2024-02-21T11:49:44;4.80;;;1.13;;
18322;SDS011;9287;49.456;11.064;2024-02-21T11:52:15;3.67;;;0.90;;
18322;SDS011;9287;49.456;11.064;2024-02-21T11:54:47;4.13;;;1.20;;
18322;SDS011;9287;49.456;11.064;2024-02-21T11:57:15;2.93;;;0.80;;
18322;SDS011;9287;49.456;11.064;2024-02-21T11:59:45;4.10;;;1.33;;
18322;SDS011;9287;49.456;11.064;2024-02-21T12:02:13;6.63;;;1.20;;
18322;SDS011;9287;49.456;11.064;2024-02-21T12:04:41;2.83;;;1.20;;
18322;SDS011;9287;49.456;11.064;2024-02-21T12:07:11;3.30;;;1.07;;
18322;SDS011;9287;49.456;11.064;2024-02-21T12:09:41;2.58;;;1.00;;
18322;SDS011;9287;49.456;11.064;2024-02-21T12:12:10;3.43;;;1.03;;
18322;SDS011;9287;49.456;11.064;2024-02-21T12:14:38;5.33;;;0.90;;
18322;SDS011;9287;49.456;11.064;2024-02-21T12:17:06;3.00;;;1.10;;
18322;SDS011;9287;49.456;11.064;2024-02-21T12:19:34;3.87;;;1.03;;
18322;SDS011;9287;49.456;11.064;2024-02-21T12:22:02;2.80;;;1.07;;
18322;SDS011;9287;49.456;11.064;2024-02-21T12:24:33;3.60;;;0.90;;
18322;SDS011;9287;49.456;11.064;2024-02-21T12:27:02;4.10;;;1.17;;
18322;SDS011;9287;49.456;11.064;2024-02-21T12:29:31;4.73;;;1.03;;
18322;SDS011;9287;49.456;11.064;2024-02-21T12:31:59;3.67;;;1.00;;
18322;SDS011;9287;49.456;11.064;2024-02-21T12:34:27;2.20;;;0.90;;
18322;SDS011;9287;49.456;11.064;2024-02-21T12:37:14;5.40;;;1.30;;
18322;SDS011;9287;49.456;11.064;2024-02-21T12:39:43;5.07;;;1.00;;
18322;SDS011;9287;49.456;11.064;2024-02-21T12:42:11;4.37;;;1.10;;
18322;SDS011;9287;49.456;11.064;2024-02-21T12:44:40;3.73;;;1.00;;
18322;SDS011;9287;49.456;11.064;2024-02-21T12:47:08;3.30;;;0.80;;
18322;SDS011;9287;49.456;11.064;2024-02-21T12:49:36;2.83;;;0.87;;
18322;SDS011;9287;49.456;11.064;2024-02-21T12:52:08;2.20;;;0.80;;
18322;SDS011;9287;49.456;11.064;2024-02-21T12:54:35;3.93;;;0.90;;
18322;SDS011;9287;49.456;11.064;2024-02-21T12:57:03;2.50;;;0.90;;
18322;SDS011;9287;49.456;11.064;2024-02-21T12:59:32;2.53;;;0.70;;
18322;SDS011;9287;49.456;11.064;2024-02-21T13:02:01;5.43;;;0.80;;
18322;SDS011;9287;49.456;11.064;2024-02-21T13:04:29;1.93;;;0.80;;
18322;SDS011;9287;49.456;11.064;2024-02-21T13:06:57;3.37;;;0.73;;
18322;SDS011;9287;49.456;11.064;2024-02-21T13:09:24;2.10;;;0.70;;
18322;SDS011;9287;49.456;11.064;2024-02-21T13:11:52;4.07;;;0.80;;
18322;SDS011;9287;49.456;11.064;2024-02-21T13:14:20;3.60;;;0.93;;
18322;SDS011;9287;49.456;11.064;2024-02-21T13:16:49;3.00;;;0.90;;
18322;SDS011;9287;49.456;11.064;2024-02-21T13:19:18;1.77;;;0.67;;
18322;SDS011;9287;49.456;11.064;2024-02-21T13:21:47;4.17;;;0.90;;
18322;SDS011;9287;49.456;11.064;2024-02-21T13:24:15;3.57;;;0.70;;
18322;SDS011;9287;49.456;11.064;2024-02-21T13:26:42;3.17;;;0.87;;
18322;SDS011;9287;49.456;11.064;2024-02-21T13:29:10;4.10;;;0.80;;
18322;SDS011;9287;49.456;11.064;2024-02-21T13:31:38;4.23;;;0.80;;
18322;SDS011;9287;49.456;11.064;2024-02-21T13:34:06;2.37;;;0.80;;
18322;SDS011;9287;49.456;11.064;2024-02-21T13:36:39;1.67;;;0.70;;
18322;SDS011;9287;49.456;11.064;2024-02-21T13:39:07;2.60;;;0.70;;
18322;SDS011;9287;49.456;11.064;2024-02-21T13:41:39;4.23;;;0.70;;
18322;SDS011;9287;49.456;11.064;2024-02-21T13:44:07;3.27;;;0.70;;
18322;SDS011;9287;49.456;11.064;2024-02-21T13:46:35;3.73;;;0.70;;
18322;SDS011;9287;49.456;11.064;2024-02-21T13:49:04;1.77;;;0.70;;
18322;SDS011;9287;49.456;11.064;2024-02-21T13:51:33;2.00;;;0.70;;
18322;SDS011;9287;49.456;11.064;2024-02-21T13:54:04;1.43;;;0.63;;
18322;SDS011;9287;49.456;11.064;2024-02-21T13:56:37;0.90;;;0.70;;
18322;SDS011;9287;49.456;11.064;2024-02-21T13:59:05;3.13;;;0.70;;
18322;SDS011;9287;49.456;11.064;2024-02-21T14:01:33;2.30;;;0.87;;
18322;SDS011;9287;49.456;11.064;2024-02-21T14:04:02;2.63;;;0.73;;
18322;SDS011;9287;49.456;11.064;2024-02-21T14:06:30;2.23;;;0.63;;
18322;SDS011;9287;49.456;11.064;2024-02-21T14:08:58;4.10;;;0.67;;
18322;SDS011;9287;49.456;11.064;2024-02-21T14:11:28;2.80;;;0.70;;
18322;SDS011;9287;49.456;11.064;2024-02-21T14:13:57;1.07;;;0.50;;
18322;SDS011;9287;49.456;11.064;2024-02-21T14:16:25;3.80;;;0.70;;
18322;SDS011;9287;49.456;11.064;2024-02-21T14:18:53;5.03;;;0.60;;
18322;SDS011;9287;49.456;11.064;2024-02-21T14:21:21;1.80;;;0.70;;
18322;SDS011;9287;49.456;11.064;2024-02-21T14:23:49;3.50;;;0.73;;
18322;SDS011;9287;49.456;11.064;2024-02-21T14:26:17;2.40;;;0.70;;
18322;SDS011;9287;49.456;11.064;2024-02-21T14:28:47;2.60;;;0.70;;
18322;SDS011;9287;49.456;11.064;2024-02-21T14:31:14;2.43;;;0.80;;
18322;SDS011;9287;49.456;11.064;2024-02-21T14:33:43;3.20;;;0.50;;
18322;SDS011;9287;49.456;11.064;2024-02-21T14:36:12;2.67;;;0.70;;
18322;SDS011;9287;49.456;11.064;2024-02-21T14:38:41;2.20;;;0.60;;
18322;SDS011;9287;49.456;11.064;2024-02-21T14:41:10;2.40;;;0.70;;
18322;SDS011;9287;49.456;11.064;2024-02-21T14:43:39;2.67;;;0.60;;
18322;SDS011;9287;49.456;11.064;2024-02-21T14:46:08;1.13;;;0.70;;
18322;SDS011;9287;49.456;11.064;2024-02-21T14:48:36;1.63;;;0.63;;
18322;SDS011;9287;49.456;11.064;2024-02-21T14:51:04;3.23;;;0.70;;
18322;SDS011;9287;49.456;11.064;2024-02-21T14:53:32;2.43;;;0.70;;
18322;SDS011;9287;49.456;11.064;2024-02-21T14:56:00;2.40;;;0.70;;